createdAt,value
2023-03-30T00:01:43.367Z,60.86
2023-03-30T00:06:48.466Z,61.10
2023-03-30T00:11:51.373Z,61.48
2023-03-30T00:16:54.276Z,61.50
2023-03-30T00:21:58.474Z,61.67
2023-03-30T00:27:01.449Z,61.87
2023-03-30T00:32:04.234Z,62.29
2023-03-30T00:37:08.361Z,62.36
2023-03-30T00:42:17.163Z,62.62
2023-03-30T00:47:22.980Z,62.96
2023-03-30T00:52:28.009Z,62.98
2023-03-30T00:57:31.399Z,63.00
2023-03-30T01:02:39.523Z,63.09
2023-03-30T01:07:46.310Z,63.36
2023-03-30T01:12:49.869Z,63.28
2023-03-30T01:18:08.775Z,63.52
2023-03-30T01:23:39.042Z,63.46
2023-03-30T01:28:50.044Z,63.86
2023-03-30T01:34:28.910Z,63.76
2023-03-30T01:39:44.886Z,64.01
2023-03-30T01:44:58.127Z,64.06
2023-03-30T01:50:06.530Z,64.14
2023-03-30T01:55:16.804Z,64.24
2023-03-30T02:00:23.623Z,64.53
2023-03-30T02:05:27.956Z,64.52
2023-03-30T02:10:36.286Z,64.66
2023-03-30T02:15:42.782Z,64.66
2023-03-30T02:20:45.786Z,64.76
2023-03-30T02:25:49.870Z,64.72
2023-03-30T02:30:53.475Z,65.12
2023-03-30T02:36:14.684Z,65.04
2023-03-30T02:41:34.810Z,65.26
2023-03-30T02:47:00.981Z,65.23
2023-03-30T02:52:15.785Z,65.30
2023-03-30T02:57:32.844Z,65.45
2023-03-30T03:02:59.572Z,65.43
2023-03-30T03:08:06.028Z,65.51
2023-03-30T03:13:11.496Z,65.64
2023-03-30T03:18:18.477Z,65.82
2023-03-30T03:23:21.501Z,65.90
2023-03-30T03:28:28.401Z,66.01
2023-03-30T03:33:37.512Z,65.50
2023-03-30T03:38:49.939Z,65.50
2023-03-30T03:43:54.574Z,65.40
2023-03-30T03:48:57.586Z,65.23
2023-03-30T03:54:01.374Z,65.07
2023-03-30T03:59:05.770Z,65.28
2023-03-30T04:04:08.552Z,65.14
2023-03-30T04:09:11.481Z,65.11
2023-03-30T04:14:46.726Z,64.90
2023-03-30T04:20:23.403Z,64.92
2023-03-30T04:25:45.677Z,64.93
2023-03-30T04:31:18.594Z,64.84
2023-03-30T04:36:43.215Z,64.71
2023-03-30T04:42:20.032Z,64.85
2023-03-30T04:47:44.671Z,64.88
2023-03-30T04:53:05.641Z,64.74
2023-03-30T04:58:34.628Z,64.78
2023-03-30T05:03:57.561Z,64.77
2023-03-30T05:09:14.643Z,64.61
2023-03-30T05:14:35.748Z,64.71
2023-03-30T05:20:00.203Z,64.85
2023-03-30T05:25:16.259Z,64.95
2023-03-30T05:30:29.776Z,64.81
2023-03-30T05:35:52.788Z,64.87
2023-03-30T05:41:09.245Z,64.85
2023-03-30T05:46:28.013Z,64.76
2023-03-30T05:51:52.294Z,64.81
2023-03-30T05:57:18.342Z,64.67
2023-03-30T06:02:53.728Z,64.79
2023-03-30T06:08:01.621Z,64.86
2023-03-30T06:13:05.961Z,64.86
2023-03-30T06:18:17.705Z,64.86
2023-03-30T06:23:30.030Z,64.78
2023-03-30T06:28:38.063Z,64.71
2023-03-30T06:33:42.085Z,64.49
2023-03-30T06:38:48.750Z,64.54
2023-03-30T06:43:53.298Z,64.37
2023-03-30T06:48:57.901Z,64.39
2023-03-30T06:54:20.437Z,64.42
2023-03-30T06:59:32.511Z,64.22
2023-03-30T07:04:55.657Z,63.62
2023-03-30T07:10:11.071Z,59.01
2023-03-30T07:15:14.667Z,56.97
2023-03-30T07:20:18.025Z,57.30
2023-03-30T07:25:54.333Z,57.08
2023-03-30T07:31:06.177Z,57.23
2023-03-30T07:36:10.745Z,57.66
2023-03-30T07:41:17.975Z,58.18
2023-03-30T07:46:24.398Z,58.03
2023-03-30T07:51:30.413Z,58.45
2023-03-30T07:56:44.779Z,58.56
2023-03-30T08:01:50.226Z,58.39
2023-03-30T08:07:09.942Z,58.28
2023-03-30T08:12:14.711Z,58.72
2023-03-30T08:17:19.206Z,58.94
2023-03-30T08:22:22.345Z,59.15
2023-03-30T08:27:26.720Z,59.18
2023-03-30T08:32:29.715Z,59.46
2023-03-30T08:37:32.634Z,59.56
2023-03-30T08:43:12.231Z,59.61
2023-03-30T08:48:19.499Z,59.91
2023-03-30T08:53:22.852Z,59.96
2023-03-30T08:58:35.820Z,60.19
2023-03-30T09:03:43.575Z,60.18
2023-03-30T09:08:49.477Z,60.46
2023-03-30T09:13:56.091Z,60.66
2023-03-30T09:19:01.960Z,60.09
2023-03-30T09:24:14.051Z,61.01
2023-03-30T09:29:21.192Z,61.09
2023-03-30T09:34:28.192Z,61.16
2023-03-30T09:39:33.630Z,60.70
2023-03-30T09:44:43.761Z,61.52
2023-03-30T09:49:47.183Z,61.36
2023-03-30T09:54:49.936Z,61.67
2023-03-30T09:59:55.811Z,61.76
2023-03-30T10:05:02.262Z,61.94
2023-03-30T10:10:16.447Z,61.87
2023-03-30T10:15:24.503Z,62.24
2023-03-30T10:20:30.720Z,61.14
2023-03-30T10:25:34.948Z,61.18
2023-03-30T10:30:39.180Z,61.19
2023-03-30T10:35:42.131Z,61.25
2023-03-30T10:40:47.242Z,61.48
2023-03-30T10:45:53.991Z,61.51
2023-03-30T10:51:03.087Z,61.93
2023-03-30T10:56:16.928Z,61.85
2023-03-30T11:01:26.701Z,62.02
2023-03-30T11:06:33.946Z,61.88
2023-03-30T11:11:41.839Z,61.82
2023-03-30T11:16:53.813Z,61.78
2023-03-30T11:22:04.327Z,61.89
2023-03-30T11:27:15.729Z,61.83
2023-03-30T11:32:30.965Z,62.63
2023-03-30T11:37:38.390Z,62.86
2023-03-30T11:42:41.320Z,62.95
2023-03-30T11:48:06.720Z,62.35
2023-03-30T11:53:24.318Z,62.68
2023-03-30T11:58:36.369Z,62.08
2023-03-30T12:03:43.780Z,62.17
2023-03-30T12:09:07.189Z,62.68
2023-03-30T12:14:36.967Z,62.80
2023-03-30T12:19:55.568Z,62.23
2023-03-30T12:25:06.327Z,61.80
2023-03-30T12:30:15.884Z,61.88
2023-03-30T12:35:52.827Z,61.72
2023-03-30T12:41:06.082Z,61.78
2023-03-30T12:46:19.893Z,61.59
2023-03-30T12:51:41.231Z,61.63
2023-03-30T12:56:51.515Z,61.21
2023-03-30T13:02:38.929Z,61.05
2023-03-30T13:07:44.662Z,61.06
2023-03-30T13:12:49.727Z,61.23
2023-03-30T13:17:59.364Z,61.58
2023-03-30T13:23:26.226Z,61.75
2023-03-30T13:28:56.501Z,61.88
2023-03-30T13:34:06.718Z,61.83
2023-03-30T13:39:17.691Z,61.89
2023-03-30T13:44:40.004Z,62.12
2023-03-30T13:49:51.546Z,61.84
2023-03-30T13:54:55.794Z,61.46
2023-03-30T14:00:06.047Z,58.68
2023-03-30T14:05:15.537Z,59.97
2023-03-30T14:10:22.087Z,60.05
2023-03-30T14:15:29.177Z,60.19
2023-03-30T14:20:46.586Z,60.14
2023-03-30T14:25:54.575Z,60.18
2023-03-30T14:30:59.166Z,60.45
2023-03-30T14:36:03.781Z,60.48
2023-03-30T14:41:11.193Z,60.55
2023-03-30T14:46:14.219Z,60.65
2023-03-30T14:51:26.868Z,60.83
2023-03-30T14:56:32.635Z,60.92
2023-03-30T15:01:35.919Z,61.13
2023-03-30T15:06:39.197Z,61.43
2023-03-30T15:11:45.798Z,61.72
2023-03-30T15:16:53.604Z,61.94
2023-03-30T15:22:00.961Z,62.13
2023-03-30T15:27:07.788Z,62.23
2023-03-30T15:32:16.317Z,62.24
2023-03-30T15:37:23.940Z,62.61
2023-03-30T15:42:31.513Z,62.58
2023-03-30T15:47:35.216Z,62.93
2023-03-30T15:52:43.092Z,63.07
2023-03-30T15:57:52.655Z,64.28
2023-03-30T16:02:58.465Z,65.36
2023-03-30T16:08:01.543Z,65.49
2023-03-30T16:13:06.976Z,65.76
2023-03-30T16:18:11.759Z,66.04
2023-03-30T16:23:14.553Z,65.85
2023-03-30T16:28:19.259Z,63.59
2023-03-30T16:33:22.051Z,62.51
2023-03-30T16:38:24.899Z,62.69
2023-03-30T16:43:29.247Z,62.49
2023-03-30T16:48:32.060Z,62.15
2023-03-30T16:53:35.119Z,62.15
2023-03-30T16:58:39.735Z,61.79
2023-03-30T17:03:42.635Z,61.77
2023-03-30T17:08:45.908Z,61.86
2023-03-30T17:13:51.223Z,61.47
2023-03-30T17:18:54.063Z,61.50
2023-03-30T17:23:57.826Z,62.15
2023-03-30T17:29:02.153Z,62.26
2023-03-30T17:34:06.658Z,61.71
2023-03-30T17:39:13.059Z,61.69
2023-03-30T17:44:17.187Z,61.47
2023-03-30T17:49:20.041Z,61.53
2023-03-30T17:54:24.021Z,61.59
2023-03-30T17:59:28.240Z,60.97
2023-03-30T18:04:31.094Z,61.43
2023-03-30T18:09:34.282Z,61.38
2023-03-30T18:14:38.421Z,61.09
2023-03-30T18:19:41.249Z,62.39
2023-03-30T18:24:43.983Z,62.76
2023-03-30T18:29:48.142Z,62.69
2023-03-30T18:34:50.985Z,62.47
2023-03-30T18:39:53.795Z,62.67
2023-03-30T18:44:58.065Z,62.66
2023-03-30T18:50:00.821Z,62.61
2023-03-30T18:55:03.657Z,62.43
2023-03-30T19:00:19.666Z,62.33
2023-03-30T19:05:24.232Z,62.13
2023-03-30T19:10:30.789Z,62.01
2023-03-30T19:15:36.705Z,62.15
2023-03-30T19:20:41.332Z,61.90
2023-03-30T19:25:45.281Z,62.13
2023-03-30T19:30:49.492Z,61.81
2023-03-30T19:35:52.370Z,61.70
2023-03-30T19:41:00.844Z,61.84
2023-03-30T19:46:06.033Z,61.74
2023-03-30T19:51:09.123Z,61.29
2023-03-30T19:56:12.691Z,61.25
2023-03-30T20:01:16.859Z,60.93
2023-03-30T20:06:19.748Z,61.41
2023-03-30T20:11:23.341Z,61.54
2023-03-30T20:16:30.003Z,61.28
2023-03-30T20:21:33.852Z,60.91
2023-03-30T20:26:36.848Z,61.22
2023-03-30T20:31:41.174Z,60.90
2023-03-30T20:36:44.806Z,61.13
2023-03-30T20:41:47.796Z,60.68
2023-03-30T20:46:57.936Z,61.04
2023-03-30T20:52:01.966Z,61.04
2023-03-30T20:57:04.804Z,61.11
2023-03-30T21:02:11.567Z,61.40
2023-03-30T21:07:16.188Z,61.28
2023-03-30T21:12:19.016Z,61.01
2023-03-30T21:17:23.121Z,60.84
2023-03-30T21:22:25.958Z,60.55
2023-03-30T21:27:28.916Z,60.55
2023-03-30T21:32:33.327Z,60.38
2023-03-30T21:37:36.230Z,60.32
2023-03-30T21:42:39.011Z,60.41
2023-03-30T21:47:43.207Z,60.06
2023-03-30T21:52:46.093Z,60.12
2023-03-30T21:57:48.799Z,60.25
2023-03-30T22:02:53.009Z,60.34
2023-03-30T22:07:55.846Z,60.24
2023-03-30T22:12:58.684Z,60.24
2023-03-30T22:18:03.476Z,60.33
2023-03-30T22:23:07.519Z,60.43
2023-03-30T22:28:11.899Z,60.58
2023-03-30T22:33:17.299Z,60.68
2023-03-30T22:38:20.115Z,60.85
2023-03-30T22:43:23.041Z,61.09
2023-03-30T22:48:27.157Z,61.33
2023-03-30T22:53:30.271Z,61.68
2023-03-30T22:58:33.013Z,61.85
2023-03-30T23:03:37.196Z,62.09
2023-03-30T23:08:40.008Z,62.10
2023-03-30T23:13:43.068Z,62.29
2023-03-30T23:18:47.513Z,62.52
2023-03-30T23:23:50.828Z,62.64
2023-03-30T23:28:53.636Z,62.81
2023-03-30T23:33:58.028Z,62.98
2023-03-30T23:39:01.025Z,62.99
2023-03-30T23:44:03.976Z,63.16
2023-03-30T23:49:08.119Z,63.40
2023-03-30T23:54:10.932Z,63.69
2023-03-30T23:59:14.144Z,63.94
